IBE3396 LPMA-LEPA
Flight info
| Callsign | IBE3396 |
|---|---|
| Flight time | 2h 9m |
| Altitude | 30000 |
| Route | DEGUN DCT NARTA/N0446F320 DCT MINTA N747 YES/N0428F260 M985 ASTRO Z224 LASPO M871 GODOX |
| Aircraft | MD88/M-SDFGIRWY/S |
Departure
| Time | 2026-05-06 16:25 |
|---|---|
| Airport | Cristiano Ronaldo International Airport (LPMA) |
Arrival
| Time | 2026-05-06 18:35 |
|---|---|
| Airport | Palma de Mallorca Airport (LEPA) |
| Time | Latitude | Longitude | Altitude | Speed | Heading |
|---|---|---|---|---|---|
| 2026-05-06 15:37 | 32.69514 | -16.77437 | 170 ft | 0 kts | 138° |
| 2026-05-06 16:10 | 32.69517 | -16.77441 | 170 ft | 3 kts | 138° |
| 2026-05-06 16:11 | 32.69537 | -16.77462 | 170 ft | 4 kts | 138° |
| 2026-05-06 16:11 | 32.69555 | -16.77481 | 170 ft | 4 kts | 142° |
| 2026-05-06 16:11 | 32.69574 | -16.77490 | 170 ft | 4 kts | 188° |
| 2026-05-06 16:11 | 32.69595 | -16.77478 | 170 ft | 4 kts | 223° |
| 2026-05-06 16:12 | 32.69604 | -16.77466 | 170 ft | 2 kts | 226° |
| 2026-05-06 16:15 | 32.69604 | -16.77467 | 170 ft | 1 kts | 226° |
| 2026-05-06 16:15 | 32.69580 | -16.77497 | 170 ft | 9 kts | 226° |
| 2026-05-06 16:15 | 32.69517 | -16.77574 | 170 ft | 17 kts | 226° |
| 2026-05-06 16:16 | 32.69419 | -16.77695 | 170 ft | 22 kts | 226° |
| 2026-05-06 16:16 | 32.69330 | -16.77805 | 170 ft | 10 kts | 226° |
| 2026-05-06 16:16 | 32.69295 | -16.77852 | 170 ft | 5 kts | 242° |
| 2026-05-06 16:16 | 32.69292 | -16.77865 | 170 ft | 0 kts | 259° |
| 2026-05-06 16:21 | 32.69292 | -16.77866 | 170 ft | 2 kts | 259° |
| 2026-05-06 16:21 | 32.69288 | -16.77919 | 170 ft | 11 kts | 269° |
| 2026-05-06 16:21 | 32.69281 | -16.78027 | 169 ft | 14 kts | 248° |
| 2026-05-06 16:21 | 32.69202 | -16.78128 | 166 ft | 19 kts | 224° |
| 2026-05-06 16:22 | 32.69100 | -16.78248 | 160 ft | 22 kts | 225° |
| 2026-05-06 16:22 | 32.68991 | -16.78374 | 154 ft | 14 kts | 216° |
| 2026-05-06 16:22 | 32.68900 | -16.78410 | 154 ft | 7 kts | 207° |
| 2026-05-06 16:22 | 32.68886 | -16.78453 | 154 ft | 6 kts | 285° |
| 2026-05-06 16:23 | 32.68910 | -16.78475 | 154 ft | 4 kts | 356° |
| 2026-05-06 16:23 | 32.68929 | -16.78462 | 154 ft | 3 kts | 52° |
| 2026-05-06 16:23 | 32.68939 | -16.78443 | 154 ft | 3 kts | 59° |
| 2026-05-06 16:23 | 32.68949 | -16.78427 | 154 ft | 0 kts | 46° |
| 2026-05-06 16:24 | 32.68954 | -16.78421 | 154 ft | 11 kts | 46° |
| 2026-05-06 16:25 | 32.69173 | -16.78165 | 164 ft | 76 kts | 44° |
| 2026-05-06 16:25 | 32.69690 | -16.77565 | 180 ft | 129 kts | 44° |
| 2026-05-06 16:25 | 32.70439 | -16.76689 | 221 ft | 170 kts | 43° |
| 2026-05-06 16:25 | 32.71238 | -16.75652 | 834 ft | 167 kts | 44° |
| 2026-05-06 16:26 | 32.72026 | -16.74666 | 1602 ft | 165 kts | 44° |
| 2026-05-06 16:26 | 32.72905 | -16.73709 | 2022 ft | 184 kts | 40° |
| 2026-05-06 16:26 | 32.73988 | -16.72596 | 1783 ft | 231 kts | 41° |
| 2026-05-06 16:26 | 32.75175 | -16.71129 | 2144 ft | 250 kts | 59° |
| 2026-05-06 16:27 | 32.75671 | -16.69192 | 3153 ft | 250 kts | 79° |
| 2026-05-06 16:27 | 32.75649 | -16.67136 | 4025 ft | 256 kts | 106° |
| 2026-05-06 16:27 | 32.74727 | -16.65306 | 4808 ft | 262 kts | 127° |
| 2026-05-06 16:27 | 32.73404 | -16.63768 | 5502 ft | 269 kts | 145° |
| 2026-05-06 16:28 | 32.71826 | -16.62527 | 6247 ft | 275 kts | 148° |
| 2026-05-06 16:28 | 32.70168 | -16.61274 | 6845 ft | 290 kts | 147° |
| 2026-05-06 16:28 | 32.68516 | -16.59811 | 7341 ft | 302 kts | 137° |
| 2026-05-06 16:28 | 32.67032 | -16.57977 | 7829 ft | 315 kts | 127° |
| 2026-05-06 16:29 | 32.65999 | -16.55655 | 8338 ft | 325 kts | 103° |
| 2026-05-06 16:29 | 32.65832 | -16.52997 | 8850 ft | 325 kts | 78° |
| 2026-05-06 16:29 | 32.66574 | -16.50492 | 9364 ft | 325 kts | 55° |
| 2026-05-06 16:29 | 32.68082 | -16.48546 | 9891 ft | 329 kts | 33° |
| 2026-05-06 16:30 | 32.70024 | -16.47064 | 10361 ft | 336 kts | 29° |
| 2026-05-06 16:30 | 32.71365 | -16.46036 | 10678 ft | 342 kts | 32° |
| 2026-05-06 16:30 | 32.73950 | -16.43766 | 11314 ft | 357 kts | 36° |
| 2026-05-06 16:30 | 32.75894 | -16.41850 | 11806 ft | 368 kts | 38° |
| 2026-05-06 16:31 | 32.77839 | -16.39804 | 12317 ft | 379 kts | 40° |
| 2026-05-06 16:31 | 32.79793 | -16.37643 | 12810 ft | 389 kts | 41° |
| 2026-05-06 16:31 | 32.81772 | -16.35387 | 13336 ft | 399 kts | 42° |
| 2026-05-06 16:31 | 32.83788 | -16.33052 | 13862 ft | 408 kts | 42° |
| 2026-05-06 16:32 | 32.85813 | -16.30693 | 14345 ft | 402 kts | 42° |
| 2026-05-06 16:32 | 32.87758 | -16.28427 | 14796 ft | 384 kts | 41° |
| 2026-05-06 16:32 | 32.89662 | -16.26223 | 15278 ft | 383 kts | 41° |
| 2026-05-06 16:32 | 32.91588 | -16.24008 | 15773 ft | 385 kts | 41° |
| 2026-05-06 16:33 | 32.93496 | -16.21821 | 16266 ft | 387 kts | 41° |
| 2026-05-06 16:33 | 32.95438 | -16.19598 | 16771 ft | 388 kts | 41° |
| 2026-05-06 16:33 | 32.97383 | -16.17366 | 17285 ft | 389 kts | 41° |
| 2026-05-06 16:34 | 33.01275 | -16.12880 | 18333 ft | 389 kts | 41° |
| 2026-05-06 16:34 | 33.03217 | -16.10638 | 18809 ft | 389 kts | 41° |
| 2026-05-06 16:34 | 33.05160 | -16.08396 | 19271 ft | 388 kts | 41° |
| 2026-05-06 16:34 | 33.07094 | -16.06164 | 19744 ft | 386 kts | 41° |
| 2026-05-06 16:35 | 33.09020 | -16.03940 | 20218 ft | 385 kts | 40° |
| 2026-05-06 16:35 | 33.10943 | -16.01722 | 20638 ft | 386 kts | 40° |
| 2026-05-06 16:35 | 33.12893 | -15.99475 | 20789 ft | 394 kts | 40° |
| 2026-05-06 16:35 | 33.14890 | -15.97177 | 20941 ft | 403 kts | 40° |
| 2026-05-06 16:36 | 33.16926 | -15.94830 | 21087 ft | 412 kts | 41° |
| 2026-05-06 16:36 | 33.19010 | -15.92425 | 21245 ft | 421 kts | 41° |
| 2026-05-06 16:36 | 33.21134 | -15.89970 | 21401 ft | 430 kts | 41° |
| 2026-05-06 16:36 | 33.23300 | -15.87460 | 21564 ft | 438 kts | 41° |
| 2026-05-06 16:37 | 33.25510 | -15.84899 | 21705 ft | 447 kts | 41° |
| 2026-05-06 16:37 | 33.27758 | -15.82283 | 21862 ft | 456 kts | 41° |
| 2026-05-06 16:37 | 33.30049 | -15.79610 | 22012 ft | 463 kts | 41° |
| 2026-05-06 16:37 | 33.32370 | -15.76904 | 22141 ft | 468 kts | 41° |
| 2026-05-06 16:38 | 33.34704 | -15.74184 | 22367 ft | 467 kts | 41° |
| 2026-05-06 16:38 | 33.37011 | -15.71493 | 23015 ft | 461 kts | 41° |
| 2026-05-06 16:38 | 33.39298 | -15.68828 | 23636 ft | 458 kts | 41° |
| 2026-05-06 16:38 | 33.41584 | -15.66169 | 24095 ft | 457 kts | 40° |
| 2026-05-06 16:39 | 33.43872 | -15.63536 | 24554 ft | 455 kts | 40° |
| 2026-05-06 16:39 | 33.46164 | -15.60932 | 25030 ft | 453 kts | 39° |
| 2026-05-06 16:39 | 33.48427 | -15.58382 | 25495 ft | 451 kts | 39° |
| 2026-05-06 16:39 | 33.50715 | -15.55814 | 25921 ft | 450 kts | 39° |
| 2026-05-06 16:40 | 33.52995 | -15.53255 | 26367 ft | 448 kts | 39° |
| 2026-05-06 16:40 | 33.55265 | -15.50704 | 26820 ft | 447 kts | 39° |
| 2026-05-06 16:40 | 33.57523 | -15.48160 | 27237 ft | 445 kts | 39° |
| 2026-05-06 16:40 | 33.59781 | -15.45612 | 27626 ft | 445 kts | 39° |
| 2026-05-06 16:41 | 33.62029 | -15.43070 | 28021 ft | 444 kts | 39° |
| 2026-05-06 16:41 | 33.64273 | -15.40532 | 28421 ft | 443 kts | 39° |
| 2026-05-06 16:41 | 33.66521 | -15.37988 | 28631 ft | 447 kts | 39° |
| 2026-05-06 16:41 | 33.68799 | -15.35411 | 28768 ft | 452 kts | 39° |
| 2026-05-06 16:42 | 33.71101 | -15.32806 | 28908 ft | 458 kts | 39° |
| 2026-05-06 16:42 | 33.73431 | -15.30165 | 29048 ft | 464 kts | 40° |
| 2026-05-06 16:42 | 33.75790 | -15.27481 | 29185 ft | 469 kts | 40° |
| 2026-05-06 16:42 | 33.78167 | -15.24770 | 29325 ft | 474 kts | 40° |
| 2026-05-06 16:43 | 33.80564 | -15.22032 | 29467 ft | 478 kts | 40° |
| 2026-05-06 16:43 | 33.82987 | -15.19266 | 29605 ft | 482 kts | 40° |
| 2026-05-06 16:43 | 33.85425 | -15.16483 | 29746 ft | 485 kts | 40° |
| 2026-05-06 16:43 | 33.87885 | -15.13677 | 29890 ft | 488 kts | 40° |
| 2026-05-06 16:44 | 33.90357 | -15.10857 | 29998 ft | 491 kts | 40° |
| 2026-05-06 16:44 | 33.95305 | -15.05209 | 30073 ft | 497 kts | 40° |
| 2026-05-06 16:45 | 34.00336 | -14.99456 | 30084 ft | 501 kts | 40° |
| 2026-05-06 16:45 | 34.05387 | -14.93665 | 30083 ft | 501 kts | 40° |
| 2026-05-06 16:46 | 34.10435 | -14.87849 | 30086 ft | 502 kts | 40° |
| 2026-05-06 16:46 | 34.15487 | -14.82029 | 30085 ft | 502 kts | 40° |
| 2026-05-06 16:47 | 34.20554 | -14.76195 | 30086 ft | 503 kts | 40° |
| 2026-05-06 16:47 | 34.25622 | -14.70351 | 30080 ft | 504 kts | 40° |
| 2026-05-06 16:48 | 34.30668 | -14.64528 | 30083 ft | 504 kts | 41° |
| 2026-05-06 16:48 | 34.35740 | -14.58655 | 30082 ft | 505 kts | 41° |
| 2026-05-06 16:49 | 34.40807 | -14.52759 | 30082 ft | 506 kts | 41° |
| 2026-05-06 16:49 | 34.45880 | -14.46857 | 30081 ft | 506 kts | 41° |
| 2026-05-06 16:50 | 34.50963 | -14.40946 | 30079 ft | 507 kts | 41° |
| 2026-05-06 16:50 | 34.56051 | -14.35020 | 30070 ft | 507 kts | 41° |
| 2026-05-06 16:51 | 34.61066 | -14.29065 | 30079 ft | 509 kts | 44° |
| 2026-05-06 16:51 | 34.66107 | -14.23058 | 30074 ft | 508 kts | 40° |
| 2026-05-06 16:52 | 34.71284 | -14.17196 | 30076 ft | 509 kts | 40° |
| 2026-05-06 16:52 | 34.76399 | -14.11248 | 30070 ft | 509 kts | 41° |
| 2026-05-06 16:53 | 34.81494 | -14.05234 | 30072 ft | 510 kts | 41° |
| 2026-05-06 16:53 | 34.86590 | -13.99211 | 30074 ft | 511 kts | 41° |
| 2026-05-06 16:54 | 34.91694 | -13.93192 | 30071 ft | 511 kts | 41° |
| 2026-05-06 16:54 | 34.96804 | -13.87153 | 30070 ft | 512 kts | 41° |
| 2026-05-06 16:55 | 35.01908 | -13.81088 | 30072 ft | 512 kts | 41° |
| 2026-05-06 16:55 | 35.07017 | -13.75021 | 30064 ft | 513 kts | 41° |
| 2026-05-06 16:56 | 35.12138 | -13.68940 | 30065 ft | 514 kts | 41° |
| 2026-05-06 16:56 | 35.17262 | -13.62846 | 30065 ft | 514 kts | 41° |
| 2026-05-06 16:57 | 35.22356 | -13.56779 | 30069 ft | 515 kts | 41° |
| 2026-05-06 16:57 | 35.27474 | -13.50654 | 30057 ft | 515 kts | 42° |
| 2026-05-06 16:58 | 35.32592 | -13.44507 | 30062 ft | 515 kts | 41° |
| 2026-05-06 16:58 | 35.37714 | -13.38360 | 30058 ft | 515 kts | 42° |
| 2026-05-06 16:59 | 35.42840 | -13.32209 | 30061 ft | 515 kts | 42° |
| 2026-05-06 16:59 | 35.47964 | -13.26051 | 30060 ft | 515 kts | 42° |
| 2026-05-06 17:00 | 35.53086 | -13.19884 | 30061 ft | 516 kts | 42° |
| 2026-05-06 17:00 | 35.58202 | -13.13689 | 30058 ft | 516 kts | 42° |
| 2026-05-06 17:01 | 35.63308 | -13.07489 | 30053 ft | 517 kts | 42° |
| 2026-05-06 17:01 | 35.68428 | -13.01279 | 30053 ft | 517 kts | 42° |
| 2026-05-06 17:02 | 35.73549 | -12.95066 | 30056 ft | 517 kts | 42° |
| 2026-05-06 17:02 | 35.78676 | -12.88834 | 30051 ft | 518 kts | 42° |
| 2026-05-06 17:03 | 35.83765 | -12.82626 | 30045 ft | 518 kts | 43° |
| 2026-05-06 17:03 | 35.88844 | -12.76313 | 30058 ft | 519 kts | 43° |
| 2026-05-06 17:04 | 35.93970 | -12.70032 | 30056 ft | 520 kts | 43° |
| 2026-05-06 17:04 | 35.99133 | -12.63778 | 30037 ft | 518 kts | 42° |
| 2026-05-06 17:05 | 36.03454 | -12.58524 | 30036 ft | 520 kts | 45° |
| 2026-05-06 17:05 | 36.05617 | -12.55000 | 30052 ft | 524 kts | 60° |
| 2026-05-06 17:05 | 36.07046 | -12.50798 | 30067 ft | 525 kts | 73° |
| 2026-05-06 17:06 | 36.08865 | -12.42097 | 30040 ft | 527 kts | 76° |
| 2026-05-06 17:06 | 36.10685 | -12.33308 | 30041 ft | 528 kts | 75° |
| 2026-05-06 17:07 | 36.12667 | -12.24559 | 30036 ft | 528 kts | 74° |
| 2026-05-06 17:07 | 36.14712 | -12.15823 | 30046 ft | 529 kts | 74° |
| 2026-05-06 17:08 | 36.16737 | -12.07079 | 30044 ft | 529 kts | 74° |
| 2026-05-06 17:08 | 36.18727 | -11.98306 | 30042 ft | 530 kts | 74° |
| 2026-05-06 17:09 | 36.20690 | -11.89509 | 30038 ft | 530 kts | 74° |
| 2026-05-06 17:09 | 36.22662 | -11.80709 | 30040 ft | 531 kts | 74° |
| 2026-05-06 17:10 | 36.24644 | -11.71894 | 30037 ft | 531 kts | 74° |
| 2026-05-06 17:10 | 36.26628 | -11.63070 | 30037 ft | 531 kts | 74° |
| 2026-05-06 17:11 | 36.28606 | -11.54254 | 30028 ft | 531 kts | 74° |
| 2026-05-06 17:11 | 36.30541 | -11.45470 | 30029 ft | 531 kts | 74° |
| 2026-05-06 17:12 | 36.32484 | -11.36582 | 30027 ft | 531 kts | 74° |
| 2026-05-06 17:12 | 36.34410 | -11.27812 | 30021 ft | 530 kts | 74° |
| 2026-05-06 17:13 | 36.36351 | -11.18991 | 30020 ft | 530 kts | 74° |
| 2026-05-06 17:13 | 36.38289 | -11.10177 | 30029 ft | 529 kts | 74° |
| 2026-05-06 17:14 | 36.40215 | -11.01364 | 30025 ft | 529 kts | 74° |
| 2026-05-06 17:14 | 36.42105 | -10.92546 | 30029 ft | 528 kts | 74° |
| 2026-05-06 17:15 | 36.43993 | -10.83735 | 30018 ft | 527 kts | 74° |
| 2026-05-06 17:15 | 36.45885 | -10.74941 | 30012 ft | 527 kts | 74° |
| 2026-05-06 17:16 | 36.47779 | -10.66147 | 30015 ft | 526 kts | 74° |
| 2026-05-06 17:16 | 36.49673 | -10.57343 | 30013 ft | 526 kts | 74° |
| 2026-05-06 17:17 | 36.51539 | -10.48559 | 30005 ft | 526 kts | 75° |
| 2026-05-06 17:17 | 36.53380 | -10.39763 | 30011 ft | 525 kts | 75° |
| 2026-05-06 17:18 | 36.55225 | -10.30973 | 30006 ft | 525 kts | 74° |
| 2026-05-06 17:18 | 36.57065 | -10.22245 | 30003 ft | 525 kts | 75° |
| 2026-05-06 17:19 | 36.58915 | -10.13461 | 29999 ft | 525 kts | 75° |
| 2026-05-06 17:19 | 36.60762 | -10.04677 | 29999 ft | 524 kts | 75° |
| 2026-05-06 17:20 | 36.62574 | -9.95891 | 29995 ft | 524 kts | 75° |
| 2026-05-06 17:20 | 36.64375 | -9.87090 | 29994 ft | 524 kts | 75° |
| 2026-05-06 17:21 | 36.66188 | -9.78274 | 29983 ft | 524 kts | 75° |
| 2026-05-06 17:21 | 36.68003 | -9.69469 | 29990 ft | 525 kts | 75° |
| 2026-05-06 17:22 | 36.69816 | -9.60666 | 29978 ft | 525 kts | 75° |
| 2026-05-06 17:22 | 36.71624 | -9.51844 | 29982 ft | 525 kts | 75° |
| 2026-05-06 17:23 | 36.73397 | -9.43004 | 29977 ft | 525 kts | 75° |
| 2026-05-06 17:23 | 36.75154 | -9.34231 | 29980 ft | 525 kts | 76° |
| 2026-05-06 17:24 | 36.76945 | -9.25333 | 29969 ft | 525 kts | 76° |
| 2026-05-06 17:24 | 36.78713 | -9.16555 | 29972 ft | 526 kts | 76° |
| 2026-05-06 17:25 | 36.80494 | -9.07706 | 29967 ft | 526 kts | 76° |
| 2026-05-06 17:25 | 36.82256 | -8.98854 | 29961 ft | 526 kts | 76° |
| 2026-05-06 17:26 | 36.83989 | -8.89983 | 29949 ft | 526 kts | 76° |
| 2026-05-06 17:26 | 36.85728 | -8.81104 | 29955 ft | 526 kts | 76° |
| 2026-05-06 17:27 | 36.87476 | -8.72218 | 29946 ft | 526 kts | 76° |
| 2026-05-06 17:27 | 36.89223 | -8.63340 | 29934 ft | 527 kts | 76° |
| 2026-05-06 17:28 | 36.90971 | -8.54443 | 29933 ft | 527 kts | 76° |
| 2026-05-06 17:28 | 36.92688 | -8.45539 | 29925 ft | 527 kts | 76° |
| 2026-05-06 17:29 | 36.94374 | -8.36690 | 29919 ft | 527 kts | 76° |
| 2026-05-06 17:29 | 36.96079 | -8.27781 | 29912 ft | 527 kts | 76° |
| 2026-05-06 17:30 | 36.97794 | -8.18860 | 29896 ft | 527 kts | 76° |
| 2026-05-06 17:30 | 36.99509 | -8.09935 | 29899 ft | 528 kts | 76° |
| 2026-05-06 17:31 | 37.01216 | -8.01009 | 29892 ft | 528 kts | 76° |
| 2026-05-06 17:31 | 37.02885 | -7.92065 | 29897 ft | 528 kts | 77° |
| 2026-05-06 17:32 | 37.04551 | -7.83114 | 29891 ft | 528 kts | 76° |
| 2026-05-06 17:32 | 37.06228 | -7.74154 | 29893 ft | 529 kts | 76° |
| 2026-05-06 17:33 | 37.07909 | -7.65191 | 29889 ft | 529 kts | 76° |
| 2026-05-06 17:33 | 37.09591 | -7.56224 | 29985 ft | 528 kts | 77° |
| 2026-05-06 17:34 | 37.11246 | -7.47270 | 29896 ft | 527 kts | 77° |
| 2026-05-06 17:34 | 37.12949 | -7.38364 | 29880 ft | 525 kts | 76° |
| 2026-05-06 17:35 | 37.14589 | -7.29449 | 29885 ft | 524 kts | 78° |
| 2026-05-06 17:35 | 37.16205 | -7.20535 | 29889 ft | 524 kts | 77° |
| 2026-05-06 17:36 | 37.18740 | -7.07259 | 29884 ft | 524 kts | 77° |
| 2026-05-06 17:36 | 37.20459 | -6.98302 | 29884 ft | 525 kts | 77° |
| 2026-05-06 17:37 | 37.22128 | -6.89450 | 29879 ft | 525 kts | 77° |
| 2026-05-06 17:37 | 37.23801 | -6.80517 | 29876 ft | 526 kts | 77° |
| 2026-05-06 17:38 | 37.25474 | -6.71572 | 29881 ft | 527 kts | 78° |
| 2026-05-06 17:38 | 37.27130 | -6.62609 | 29884 ft | 527 kts | 78° |
| 2026-05-06 17:39 | 37.28788 | -6.53633 | 29883 ft | 528 kts | 78° |
| 2026-05-06 17:39 | 37.30439 | -6.44649 | 29876 ft | 528 kts | 78° |
| 2026-05-06 17:40 | 37.32076 | -6.35633 | 29880 ft | 529 kts | 78° |
| 2026-05-06 17:40 | 37.33709 | -6.26611 | 29874 ft | 530 kts | 78° |
| 2026-05-06 17:41 | 37.35346 | -6.17577 | 29871 ft | 530 kts | 78° |
| 2026-05-06 17:41 | 37.36985 | -6.08540 | 29865 ft | 531 kts | 78° |
| 2026-05-06 17:42 | 37.38627 | -5.99483 | 29859 ft | 531 kts | 78° |
| 2026-05-06 17:42 | 37.40229 | -5.90406 | 29855 ft | 532 kts | 79° |
| 2026-05-06 17:43 | 37.41834 | -5.81324 | 29865 ft | 533 kts | 79° |
| 2026-05-06 17:43 | 37.43894 | -5.72437 | 29858 ft | 535 kts | 68° |
| 2026-05-06 17:44 | 37.46960 | -5.63891 | 29858 ft | 536 kts | 65° |
| 2026-05-06 17:44 | 37.50072 | -5.55372 | 29856 ft | 536 kts | 66° |
| 2026-05-06 17:45 | 37.53090 | -5.46781 | 29863 ft | 536 kts | 67° |
| 2026-05-06 17:45 | 37.56063 | -5.38165 | 29859 ft | 536 kts | 67° |
| 2026-05-06 17:46 | 37.59051 | -5.29540 | 29863 ft | 537 kts | 67° |
| 2026-05-06 17:46 | 37.62043 | -5.20917 | 29857 ft | 537 kts | 67° |
| 2026-05-06 17:47 | 37.65005 | -5.12270 | 29861 ft | 537 kts | 68° |
| 2026-05-06 17:47 | 37.67973 | -5.03599 | 29858 ft | 538 kts | 68° |
| 2026-05-06 17:48 | 37.70446 | -4.96393 | 29861 ft | 538 kts | 67° |
| 2026-05-06 17:48 | 37.73424 | -4.87721 | 29864 ft | 539 kts | 68° |
| 2026-05-06 17:49 | 37.76407 | -4.79032 | 29870 ft | 539 kts | 68° |
| 2026-05-06 17:49 | 37.79363 | -4.70314 | 29857 ft | 540 kts | 68° |
| 2026-05-06 17:50 | 37.82307 | -4.61575 | 29866 ft | 540 kts | 68° |
| 2026-05-06 17:50 | 37.85264 | -4.52823 | 29856 ft | 541 kts | 68° |
| 2026-05-06 17:51 | 37.88208 | -4.44061 | 29853 ft | 541 kts | 68° |
| 2026-05-06 17:51 | 37.91125 | -4.35336 | 29844 ft | 542 kts | 68° |
| 2026-05-06 17:52 | 37.94060 | -4.26540 | 29837 ft | 542 kts | 68° |
| 2026-05-06 17:52 | 37.96998 | -4.17739 | 29833 ft | 542 kts | 68° |
| 2026-05-06 17:53 | 37.99937 | -4.08926 | 29843 ft | 543 kts | 68° |
| 2026-05-06 17:53 | 38.02875 | -4.00113 | 29847 ft | 543 kts | 68° |
| 2026-05-06 17:54 | 38.05779 | -3.91256 | 29847 ft | 544 kts | 69° |
| 2026-05-06 17:54 | 38.08665 | -3.82389 | 29841 ft | 544 kts | 69° |
| 2026-05-06 17:55 | 38.11594 | -3.73518 | 29848 ft | 545 kts | 68° |
| 2026-05-06 17:55 | 38.14535 | -3.64651 | 29848 ft | 545 kts | 68° |
| 2026-05-06 17:56 | 38.16614 | -3.55496 | 29858 ft | 542 kts | 81° |
| 2026-05-06 17:56 | 38.18019 | -3.46071 | 29842 ft | 542 kts | 82° |
| 2026-05-06 17:57 | 38.19502 | -3.36658 | 29865 ft | 543 kts | 81° |
| 2026-05-06 17:57 | 38.21085 | -3.27269 | 29864 ft | 544 kts | 80° |
| 2026-05-06 17:58 | 38.22686 | -3.17863 | 29867 ft | 544 kts | 80° |
| 2026-05-06 17:58 | 38.24269 | -3.08456 | 29871 ft | 544 kts | 81° |
| 2026-05-06 17:59 | 38.25792 | -2.99095 | 29875 ft | 544 kts | 81° |
| 2026-05-06 17:59 | 38.27310 | -2.89660 | 29882 ft | 544 kts | 81° |
| 2026-05-06 18:00 | 38.28842 | -2.80226 | 29888 ft | 545 kts | 81° |
| 2026-05-06 18:00 | 38.30379 | -2.70803 | 29889 ft | 542 kts | 81° |
| 2026-05-06 18:01 | 38.31910 | -2.61380 | 29899 ft | 544 kts | 81° |
| 2026-05-06 18:01 | 38.33420 | -2.51916 | 29893 ft | 545 kts | 81° |
| 2026-05-06 18:02 | 38.34908 | -2.42441 | 29908 ft | 545 kts | 81° |
| 2026-05-06 18:02 | 38.37236 | -2.33276 | 29917 ft | 548 kts | 59° |
| 2026-05-06 18:03 | 38.41777 | -2.25566 | 29919 ft | 547 kts | 49° |
| 2026-05-06 18:03 | 38.46646 | -2.18101 | 29916 ft | 548 kts | 50° |
| 2026-05-06 18:04 | 38.51420 | -2.10521 | 29928 ft | 548 kts | 51° |
| 2026-05-06 18:04 | 38.56113 | -2.02841 | 29930 ft | 548 kts | 52° |
| 2026-05-06 18:05 | 38.60781 | -1.95138 | 29933 ft | 548 kts | 51° |
| 2026-05-06 18:05 | 38.65470 | -1.87449 | 29935 ft | 548 kts | 51° |
| 2026-05-06 18:06 | 38.70168 | -1.79767 | 29937 ft | 548 kts | 51° |
| 2026-05-06 18:06 | 38.74859 | -1.72072 | 29939 ft | 548 kts | 51° |
| 2026-05-06 18:07 | 38.79525 | -1.64345 | 29946 ft | 548 kts | 51° |
| 2026-05-06 18:07 | 38.84188 | -1.56615 | 29942 ft | 548 kts | 51° |
| 2026-05-06 18:08 | 38.88863 | -1.48876 | 29945 ft | 549 kts | 51° |
| 2026-05-06 18:08 | 38.93511 | -1.41174 | 29949 ft | 549 kts | 51° |
| 2026-05-06 18:09 | 38.98185 | -1.33417 | 29947 ft | 549 kts | 51° |
| 2026-05-06 18:09 | 39.02738 | -1.25535 | 29955 ft | 549 kts | 59° |
| 2026-05-06 18:10 | 39.06074 | -1.16708 | 29955 ft | 549 kts | 67° |
| 2026-05-06 18:10 | 39.09141 | -1.07706 | 29939 ft | 549 kts | 66° |
| 2026-05-06 18:11 | 39.12309 | -0.98766 | 29956 ft | 549 kts | 65° |
| 2026-05-06 18:11 | 39.15551 | -0.89846 | 29933 ft | 550 kts | 65° |
| 2026-05-06 18:12 | 39.18792 | -0.80919 | 29951 ft | 550 kts | 65° |
| 2026-05-06 18:12 | 39.22002 | -0.71977 | 29950 ft | 550 kts | 65° |
| 2026-05-06 18:13 | 39.25175 | -0.63011 | 29947 ft | 549 kts | 65° |
| 2026-05-06 18:13 | 39.28127 | -0.53918 | 29946 ft | 547 kts | 78° |
| 2026-05-06 18:14 | 39.28977 | -0.44229 | 29939 ft | 543 kts | 90° |
| 2026-05-06 18:14 | 39.29300 | -0.34485 | 29937 ft | 543 kts | 90° |
| 2026-05-06 18:15 | 39.29722 | -0.24736 | 29939 ft | 544 kts | 89° |
| 2026-05-06 18:15 | 39.30251 | -0.14990 | 29935 ft | 545 kts | 88° |
| 2026-05-06 18:16 | 39.30790 | -0.05293 | 29932 ft | 545 kts | 89° |
| 2026-05-06 18:16 | 39.31288 | 0.04469 | 29932 ft | 545 kts | 89° |
| 2026-05-06 18:17 | 39.31698 | 0.14248 | 29931 ft | 545 kts | 89° |
| 2026-05-06 18:17 | 39.32163 | 0.24026 | 29932 ft | 546 kts | 89° |
| 2026-05-06 18:18 | 39.32671 | 0.33819 | 29934 ft | 546 kts | 89° |
| 2026-05-06 18:18 | 39.33177 | 0.43619 | 29930 ft | 547 kts | 89° |
| 2026-05-06 18:19 | 39.33611 | 0.53420 | 29926 ft | 547 kts | 90° |
| 2026-05-06 18:19 | 39.34020 | 0.63234 | 29932 ft | 547 kts | 89° |
| 2026-05-06 18:20 | 39.34447 | 0.73045 | 29932 ft | 547 kts | 89° |
| 2026-05-06 18:20 | 39.34884 | 0.82883 | 29937 ft | 548 kts | 89° |
| 2026-05-06 18:21 | 39.35320 | 0.92720 | 29936 ft | 548 kts | 89° |
| 2026-05-06 18:21 | 39.35728 | 1.02554 | 29935 ft | 548 kts | 90° |
| 2026-05-06 18:22 | 39.36056 | 1.12327 | 29935 ft | 548 kts | 90° |
| 2026-05-06 18:22 | 39.36444 | 1.22159 | 29936 ft | 548 kts | 89° |
| 2026-05-06 18:23 | 39.36870 | 1.32006 | 29939 ft | 548 kts | 89° |
| 2026-05-06 18:23 | 39.37292 | 1.41861 | 29706 ft | 550 kts | 89° |
| 2026-05-06 18:24 | 39.37498 | 1.46717 | 29100 ft | 530 kts | 89° |
| 2026-05-06 18:24 | 39.37702 | 1.51376 | 28475 ft | 509 kts | 89° |
| 2026-05-06 18:24 | 39.37904 | 1.55884 | 27532 ft | 497 kts | 89° |
| 2026-05-06 18:24 | 39.38104 | 1.60301 | 26636 ft | 486 kts | 89° |
| 2026-05-06 18:25 | 39.38549 | 1.64585 | 25760 ft | 478 kts | 77° |
| 2026-05-06 18:25 | 39.39354 | 1.68703 | 24920 ft | 468 kts | 77° |
| 2026-05-06 18:25 | 39.40097 | 1.72753 | 24087 ft | 459 kts | 78° |
| 2026-05-06 18:25 | 39.40775 | 1.76691 | 23259 ft | 450 kts | 78° |
| 2026-05-06 18:26 | 39.41440 | 1.80602 | 22305 ft | 441 kts | 78° |
| 2026-05-06 18:26 | 39.42098 | 1.84448 | 21391 ft | 434 kts | 78° |
| 2026-05-06 18:26 | 39.42746 | 1.88220 | 20497 ft | 426 kts | 78° |
| 2026-05-06 18:26 | 39.43387 | 1.91923 | 19638 ft | 418 kts | 77° |
| 2026-05-06 18:27 | 39.43872 | 1.95598 | 18642 ft | 414 kts | 88° |
| 2026-05-06 18:27 | 39.43851 | 1.99313 | 17475 ft | 412 kts | 93° |
| 2026-05-06 18:27 | 39.43704 | 2.03019 | 16267 ft | 417 kts | 94° |
| 2026-05-06 18:27 | 39.43525 | 2.06808 | 15059 ft | 426 kts | 94° |
| 2026-05-06 18:28 | 39.43330 | 2.10606 | 13796 ft | 421 kts | 95° |
| 2026-05-06 18:28 | 39.43123 | 2.14349 | 12484 ft | 414 kts | 95° |
| 2026-05-06 18:28 | 39.42902 | 2.18024 | 11218 ft | 406 kts | 95° |
| 2026-05-06 18:28 | 39.42668 | 2.21627 | 10134 ft | 397 kts | 95° |
| 2026-05-06 18:29 | 39.42427 | 2.25105 | 9270 ft | 380 kts | 95° |
| 2026-05-06 18:29 | 39.42192 | 2.28443 | 8384 ft | 365 kts | 95° |
| 2026-05-06 18:29 | 39.41994 | 2.31299 | 7622 ft | 354 kts | 95° |
| 2026-05-06 18:29 | 39.41785 | 2.34418 | 6784 ft | 343 kts | 95° |
| 2026-05-06 18:30 | 39.41595 | 2.37408 | 5952 ft | 334 kts | 95° |
| 2026-05-06 18:30 | 39.41414 | 2.40357 | 5085 ft | 325 kts | 95° |
| 2026-05-06 18:30 | 39.41459 | 2.43233 | 4231 ft | 318 kts | 76° |
| 2026-05-06 18:30 | 39.42433 | 2.45735 | 3465 ft | 309 kts | 54° |
| 2026-05-06 18:31 | 39.43686 | 2.47872 | 3179 ft | 286 kts | 58° |
| 2026-05-06 18:31 | 39.44639 | 2.50005 | 3052 ft | 263 kts | 61° |
| 2026-05-06 18:31 | 39.45556 | 2.51926 | 2993 ft | 239 kts | 58° |
| 2026-05-06 18:31 | 39.46431 | 2.53662 | 2936 ft | 226 kts | 58° |
| 2026-05-06 18:32 | 39.47245 | 2.55256 | 2590 ft | 228 kts | 58° |
| 2026-05-06 18:32 | 39.48049 | 2.57059 | 2115 ft | 234 kts | 62° |
| 2026-05-06 18:32 | 39.48888 | 2.58896 | 1640 ft | 239 kts | 58° |
| 2026-05-06 18:32 | 39.49761 | 2.60700 | 1187 ft | 237 kts | 59° |
| 2026-05-06 18:33 | 39.50618 | 2.62508 | 743 ft | 234 kts | 58° |
| 2026-05-06 18:33 | 39.51438 | 2.64205 | 872 ft | 214 kts | 57° |
| 2026-05-06 18:33 | 39.52247 | 2.65816 | 829 ft | 206 kts | 56° |
| 2026-05-06 18:33 | 39.52981 | 2.67324 | 620 ft | 189 kts | 59° |
| 2026-05-06 18:34 | 39.53554 | 2.68710 | 544 ft | 158 kts | 59° |
| 2026-05-06 18:34 | 39.54120 | 2.69851 | 310 ft | 145 kts | 55° |
| 2026-05-06 18:34 | 39.54474 | 2.70573 | 135 ft | 145 kts | 56° |
| 2026-05-06 18:34 | 39.54795 | 2.71241 | 46 ft | 140 kts | 57° |
| 2026-05-06 18:35 | 39.55250 | 2.72193 | 27 ft | 101 kts | 58° |
| 2026-05-06 18:35 | 39.55534 | 2.72793 | 26 ft | 57 kts | 58° |
| 2026-05-06 18:35 | 39.55668 | 2.73078 | 27 ft | 18 kts | 63° |
| 2026-05-06 18:35 | 39.55713 | 2.73236 | 25 ft | 13 kts | 83° |
| 2026-05-06 18:36 | 39.55714 | 2.73356 | 25 ft | 14 kts | 92° |
| 2026-05-06 18:36 | 39.55711 | 2.73474 | 26 ft | 6 kts | 99° |
| 2026-05-06 18:36 | 39.55692 | 2.73509 | 27 ft | 4 kts | 146° |
| 2026-05-06 18:36 | 39.55666 | 2.73511 | 27 ft | 4 kts | 199° |
| 2026-05-06 18:37 | 39.55656 | 2.73505 | 27 ft | 0 kts | 208° |
| 2026-05-06 18:37 | 39.55642 | 2.73498 | 27 ft | 6 kts | 188° |
| 2026-05-06 18:37 | 39.55594 | 2.73520 | 28 ft | 8 kts | 149° |
| 2026-05-06 18:38 | 39.55541 | 2.73561 | 30 ft | 12 kts | 149° |
| 2026-05-06 18:38 | 39.55465 | 2.73620 | 33 ft | 15 kts | 148° |
| 2026-05-06 18:38 | 39.55374 | 2.73692 | 37 ft | 15 kts | 148° |
| 2026-05-06 18:38 | 39.55283 | 2.73765 | 37 ft | 16 kts | 147° |
| 2026-05-06 18:39 | 39.55190 | 2.73843 | 37 ft | 16 kts | 147° |
| 2026-05-06 18:39 | 39.55089 | 2.73923 | 37 ft | 17 kts | 149° |
| 2026-05-06 18:39 | 39.55018 | 2.73978 | 37 ft | 17 kts | 149° |
| 2026-05-06 18:40 | 39.54945 | 2.73928 | 37 ft | 9 kts | 309° |
| 2026-05-06 18:40 | 39.54991 | 2.73877 | 37 ft | 8 kts | 288° |
| 2026-05-06 18:40 | 39.54974 | 2.73818 | 37 ft | 8 kts | 238° |
| 2026-05-06 18:40 | 39.54952 | 2.73773 | 37 ft | 3 kts | 238° |
| 2026-05-06 18:41 | 39.54945 | 2.73758 | 37 ft | 0 kts | 238° |